Time;durP1;ratioP1;P1;durP2;ratioP2;P2;SDS_P1;SDS_P2;PMS_P1;PMS_P2;Temp;Humidity;BMP_temperature;BMP_pressure;BME280_temperature;BME280_humidity;BME280_pressure;Samples;Min_cycle;Max_cycle;Signal;HPM_P1;HPM_P2
2021/12/17 00:04:38;;;;;;;20.70;7.40;;;10.20;99.90;;;;;;5055314;28;20032;-74
2021/12/17 00:07:11;;;;;;;20.20;6.47;;;10.20;99.90;;;;;;5053505;28;20021;-74
2021/12/17 00:09:38;;;;;;;20.85;7.05;;;10.20;99.90;;;;;;5055253;28;20466;-73
2021/12/17 00:12:09;;;;;;;20.70;6.63;;;10.20;99.90;;;;;;5069908;28;20415;-76
2021/12/17 00:14:37;;;;;;;21.17;7.35;;;10.20;99.90;;;;;;5077411;28;20030;-72
2021/12/17 00:17:08;;;;;;;23.20;7.82;;;10.20;99.90;;;;;;5094837;28;20046;-73
2021/12/17 00:49:20;;;;;;;23.65;7.45;;;10.20;99.90;;;;;;5094548;28;20336;-74
2021/12/17 00:54:34;;;;;;;23.67;7.50;;;10.10;99.90;;;;;;5094709;28;20032;-74
2021/12/17 00:57:13;;;;;;;23.88;7.93;;;10.20;99.90;;;;;;5074783;28;20036;-74
2021/12/17 00:59:41;;;;;;;28.75;8.98;;;10.20;99.90;;;;;;5076274;28;20101;-73
2021/12/17 01:02:10;;;;;;;29.40;9.43;;;10.20;99.90;;;;;;5093935;28;20107;-74
2021/12/17 01:04:39;;;;;;;23.52;7.25;;;10.20;99.90;;;;;;5094332;28;20026;-74
2021/12/17 01:07:06;;;;;;;21.98;7.85;;;10.10;99.90;;;;;;5075583;28;20074;-72
2021/12/17 01:09:32;;;;;;;20.90;6.82;;;10.10;99.90;;;;;;5094056;28;20037;-74
2021/12/17 01:11:59;;;;;;;24.00;7.45;;;10.20;99.90;;;;;;5093969;28;20368;-73
2021/12/17 01:14:27;;;;;;;23.88;8.32;;;10.10;99.90;;;;;;5093720;28;20080;-74
2021/12/17 01:16:54;;;;;;;21.60;7.65;;;10.10;99.90;;;;;;5093638;28;20095;-74
2021/12/17 01:20:13;;;;;;;24.63;7.68;;;10.10;99.90;;;;;;5075784;28;20403;-73
2021/12/17 01:25:21;;;;;;;21.70;7.73;;;10.10;99.90;;;;;;5093535;28;20537;-73
2021/12/17 01:35:59;;;;;;;22.20;7.57;;;10.10;99.90;;;;;;5093287;28;20077;-74
2021/12/17 01:43:30;;;;;;;21.38;7.80;;;10.10;99.90;;;;;;5093606;28;20085;-74
2021/12/17 01:45:58;;;;;;;24.00;7.30;;;10.10;99.90;;;;;;5093109;28;20361;-74
2021/12/17 01:48:31;;;;;;;31.92;7.57;;;10.10;99.90;;;;;;5075265;28;20073;-73
2021/12/17 01:59:25;;;;;;;21.48;7.60;;;10.10;99.90;;;;;;5092876;28;20503;-75
2021/12/17 02:01:58;;;;;;;15.60;5.80;;;10.10;99.90;;;;;;5074671;28;20024;-75
2021/12/17 02:04:24;;;;;;;17.85;5.57;;;10.00;99.90;;;;;;5074725;28;20116;-73
2021/12/17 02:06:50;;;;;;;16.08;5.88;;;10.00;99.90;;;;;;5092705;28;20091;-74
2021/12/17 02:28:48;;;;;;;12.65;4.55;;;10.00;99.90;;;;;;5072230;28;20404;-74
2021/12/17 02:31:29;;;;;;;13.35;5.28;;;10.00;99.90;;;;;;5054129;28;20416;-74
2021/12/17 02:33:59;;;;;;;11.68;4.38;;;10.00;99.90;;;;;;5054129;28;20361;-74
2021/12/17 02:36:28;;;;;;;13.52;4.15;;;10.00;99.90;;;;;;5054947;28;20114;-73
2021/12/17 02:47:09;;;;;;;10.70;4.25;;;10.10;99.90;;;;;;5071883;28;20063;-73
2021/12/17 02:49:36;;;;;;;11.98;4.50;;;10.10;99.90;;;;;;5072177;28;20036;-74
2021/12/17 02:52:05;;;;;;;13.07;5.00;;;10.10;99.90;;;;;;5071794;28;20032;-74
2021/12/17 02:54:33;;;;;;;10.23;4.43;;;10.10;99.90;;;;;;5072284;28;20057;-74
2021/12/17 02:56:59;;;;;;;17.48;5.35;;;10.10;99.90;;;;;;5072046;28;20082;-74
2021/12/17 02:59:25;;;;;;;16.02;5.50;;;10.10;99.90;;;;;;5072156;28;20456;-74
2021/12/17 03:01:51;;;;;;;11.85;4.78;;;10.10;99.90;;;;;;5054152;28;20107;-72
2021/12/17 03:04:19;;;;;;;12.02;4.45;;;10.10;99.90;;;;;;5072061;28;20132;-74
2021/12/17 03:06:46;;;;;;;16.50;4.70;;;10.10;99.90;;;;;;5054144;28;20055;-74
2021/12/17 03:09:12;;;;;;;13.30;4.78;;;10.10;99.90;;;;;;5071620;28;20028;-74
2021/12/17 03:11:38;;;;;;;13.93;5.05;;;10.20;99.90;;;;;;5054211;28;20166;-74
2021/12/17 03:14:04;;;;;;;12.52;4.70;;;10.10;99.90;;;;;;5053504;28;20123;-73
2021/12/17 03:19:08;;;;;;;13.48;4.75;;;10.10;99.90;;;;;;5071565;28;20037;-74
2021/12/17 03:24:19;;;;;;;11.55;4.90;;;10.10;99.90;;;;;;5075319;28;20040;-74
2021/12/17 03:26:45;;;;;;;14.82;5.35;;;10.10;99.90;;;;;;5057961;28;20412;-74
2021/12/17 03:29:11;;;;;;;16.45;5.47;;;10.10;99.90;;;;;;5057204;28;20090;-73
2021/12/17 03:31:37;;;;;;;14.15;5.03;;;10.10;99.90;;;;;;5057812;28;20032;-74
2021/12/17 03:34:27;;;;;;;13.43;5.60;;;10.10;99.90;;;;;;5075455;28;20029;-75
2021/12/17 03:36:56;;;;;;;12.90;5.15;;;10.10;99.90;;;;;;5075303;28;20086;-72
2021/12/17 03:39:27;;;;;;;11.40;4.97;;;10.20;99.90;;;;;;5075852;28;20029;-74
2021/12/17 03:41:53;;;;;;;15.27;5.15;;;10.10;99.90;;;;;;5057737;28;20491;-73
2021/12/17 03:44:20;;;;;;;14.63;5.28;;;10.20;99.90;;;;;;5075131;28;20013;-74
2021/12/17 03:46:48;;;;;;;14.18;4.80;;;10.20;99.90;;;;;;5075496;28;20419;-74
2021/12/17 03:49:17;;;;;;;14.15;5.30;;;10.20;99.90;;;;;;5056997;28;20039;-74
2021/12/17 03:52:04;;;;;;;13.57;4.63;;;10.20;99.90;;;;;;5075382;28;20022;-75
2021/12/17 03:54:34;;;;;;;11.88;5.25;;;10.20;99.90;;;;;;5057356;28;20017;-74
2021/12/17 03:57:00;;;;;;;12.30;4.55;;;10.20;99.90;;;;;;5074961;28;20069;-74
2021/12/17 03:59:26;;;;;;;13.13;4.32;;;10.20;99.90;;;;;;5057502;28;20056;-74
2021/12/17 04:01:51;;;;;;;15.88;5.10;;;10.10;99.90;;;;;;5057285;28;20064;-74
2021/12/17 04:04:17;;;;;;;16.30;4.97;;;10.10;99.90;;;;;;5056992;28;20086;-74
2021/12/17 04:06:43;;;;;;;10.75;4.45;;;10.10;99.90;;;;;;5074955;28;20468;-74
2021/12/17 04:09:09;;;;;;;11.88;4.55;;;10.10;99.90;;;;;;5056600;28;20035;-74
2021/12/17 04:11:35;;;;;;;11.05;4.00;;;10.20;99.90;;;;;;5067834;28;20491;-74
2021/12/17 04:14:02;;;;;;;14.45;4.85;;;10.10;99.90;;;;;;5093707;28;20087;-74
2021/12/17 04:16:31;;;;;;;16.42;5.65;;;10.10;99.90;;;;;;5095201;28;20031;-73
2021/12/17 04:18:58;;;;;;;13.73;5.30;;;10.10;99.90;;;;;;5095162;28;20028;-73
2021/12/17 04:21:24;;;;;;;16.05;5.13;;;10.10;99.90;;;;;;5095176;28;20078;-74
2021/12/17 04:23:53;;;;;;;16.98;5.05;;;10.20;99.90;;;;;;5077011;28;20024;-73
2021/12/17 04:26:22;;;;;;;14.52;5.35;;;10.10;99.90;;;;;;5094570;28;20024;-73
2021/12/17 04:28:52;;;;;;;11.70;4.28;;;10.10;99.90;;;;;;5076702;28;20028;-73
2021/12/17 04:31:20;;;;;;;14.18;4.70;;;10.20;99.90;;;;;;5076049;28;20406;-73
2021/12/17 04:33:46;;;;;;;13.02;4.30;;;10.10;99.90;;;;;;5095046;28;20050;-73
2021/12/17 04:36:15;;;;;;;19.20;5.63;;;10.10;99.90;;;;;;5094523;28;20016;-74
2021/12/17 04:38:41;;;;;;;14.13;4.57;;;10.10;99.90;;;;;;5076689;28;20028;-73
2021/12/17 04:44:20;;;;;;;13.18;4.80;;;10.10;99.90;;;;;;5031734;28;20045;-73
2021/12/17 04:57:44;;;;;;;13.15;4.57;;;10.10;99.90;;;;;;5094637;28;20383;-73
2021/12/17 05:00:26;;;;;;;14.82;5.15;;;10.00;99.90;;;;;;5094326;28;20030;-73
2021/12/17 05:02:55;;;;;;;13.27;4.60;;;10.00;99.90;;;;;;5088303;28;20103;-73
2021/12/17 05:05:26;;;;;;;13.88;5.18;;;10.10;99.90;;;;;;5087432;28;20782;-73
2021/12/17 05:07:57;;;;;;;14.98;4.80;;;10.10;99.90;;;;;;5094437;28;20036;-73
2021/12/17 05:18:51;;;;;;;16.20;4.50;;;10.00;99.90;;;;;;5094103;28;20529;-73
2021/12/17 05:21:17;;;;;;;10.80;4.15;;;10.00;99.90;;;;;;5075181;28;20045;-74
2021/12/17 05:23:44;;;;;;;22.45;5.70;;;10.00;99.90;;;;;;5075644;28;20027;-74
2021/12/17 05:26:13;;;;;;;17.02;5.80;;;10.00;99.90;;;;;;5093386;28;20122;-72
2021/12/17 05:28:39;;;;;;;15.43;4.93;;;10.00;99.90;;;;;;5075535;28;20028;-74
2021/12/17 05:31:05;;;;;;;13.05;4.90;;;10.00;99.90;;;;;;5066593;28;20028;-74
2021/12/17 05:33:31;;;;;;;16.60;7.13;;;10.00;99.90;;;;;;5055474;28;20055;-74
2021/12/17 05:35:57;;;;;;;17.25;6.85;;;10.00;99.90;;;;;;5073232;28;20415;-74
2021/12/17 05:38:24;;;;;;;17.85;6.32;;;10.00;99.90;;;;;;5054938;28;20028;-74
2021/12/17 05:40:51;;;;;;;15.90;4.90;;;10.00;99.90;;;;;;5073612;28;20066;-74
2021/12/17 05:43:17;;;;;;;18.35;5.68;;;10.10;99.90;;;;;;5072144;28;20027;-74
2021/12/17 05:48:26;;;;;;;14.23;5.78;;;10.00;99.90;;;;;;5072749;28;20552;-74
2021/12/17 05:51:03;;;;;;;19.38;5.90;;;10.10;99.90;;;;;;5055169;28;20397;-74
2021/12/17 05:53:29;;;;;;;14.98;5.40;;;10.00;99.90;;;;;;5054694;28;20025;-75
2021/12/17 05:55:55;;;;;;;15.73;5.55;;;10.10;99.90;;;;;;5072902;28;20052;-74
2021/12/17 05:58:22;;;;;;;16.00;5.25;;;10.00;99.90;;;;;;5054516;28;20028;-74
2021/12/17 06:00:48;;;;;;;17.48;5.55;;;10.10;99.90;;;;;;5072585;28;20028;-74
2021/12/17 06:03:14;;;;;;;18.02;5.88;;;10.10;99.90;;;;;;5072334;28;20475;-74
2021/12/17 06:05:40;;;;;;;17.92;5.97;;;10.10;99.90;;;;;;5052492;28;20034;-74
2021/12/17 06:08:06;;;;;;;16.73;5.55;;;10.10;99.90;;;;;;5070492;28;20111;-77
2021/12/17 06:10:32;;;;;;;17.42;5.63;;;10.10;99.90;;;;;;5052657;28;20028;-73
2021/12/17 06:12:58;;;;;;;14.10;5.05;;;10.10;99.90;;;;;;5070228;28;20162;-73
2021/12/17 06:15:25;;;;;;;17.05;5.25;;;10.10;99.90;;;;;;5070391;28;20019;-74
2021/12/17 06:17:52;;;;;;;13.90;5.45;;;10.10;99.90;;;;;;5052048;28;20024;-73
2021/12/17 06:20:19;;;;;;;16.75;4.93;;;10.10;99.90;;;;;;5070150;28;20472;-73
2021/12/17 06:22:46;;;;;;;20.23;5.82;;;10.10;99.90;;;;;;5052445;28;20025;-74
2021/12/17 06:25:12;;;;;;;14.50;4.97;;;10.10;99.90;;;;;;5052071;28;20025;-75
2021/12/17 06:27:39;;;;;;;16.02;6.25;;;10.10;99.90;;;;;;5054085;28;20042;-75
2021/12/17 06:30:11;;;;;;;13.85;5.25;;;10.10;99.90;;;;;;5054537;28;20021;-75
2021/12/17 06:32:36;;;;;;;18.13;6.18;;;10.10;99.90;;;;;;5054557;28;20017;-75
2021/12/17 06:35:04;;;;;;;14.50;5.18;;;10.10;99.90;;;;;;5072492;28;20074;-75
2021/12/17 06:37:30;;;;;;;13.73;5.22;;;10.10;99.90;;;;;;5071933;28;20023;-74
2021/12/17 06:39:55;;;;;;;14.30;5.35;;;10.10;99.90;;;;;;5072420;28;20111;-74
2021/12/17 06:42:21;;;;;;;14.00;5.50;;;10.10;99.90;;;;;;5053880;28;20021;-75
2021/12/17 06:44:48;;;;;;;17.27;5.68;;;10.10;99.90;;;;;;5072323;28;20032;-74
2021/12/17 06:47:34;;;;;;;18.65;5.75;;;10.10;99.90;;;;;;5071516;28;20039;-74
2021/12/17 07:07:03;;;;;;;17.83;5.38;;;10.20;99.90;;;;;;5071417;28;20504;-74
2021/12/17 07:17:30;;;;;;;14.27;4.30;;;10.20;99.90;;;;;;5071607;28;20090;-75
2021/12/17 07:40:47;;;;;;;12.38;4.82;;;10.10;99.90;;;;;;5071949;28;20044;-74
2021/12/17 07:43:22;;;;;;;13.93;4.95;;;10.10;99.90;;;;;;5053491;28;20457;-74
2021/12/17 07:45:47;;;;;;;14.02;4.50;;;10.20;99.90;;;;;;5053770;28;20427;-75
2021/12/17 07:48:14;;;;;;;9.68;4.03;;;10.20;99.90;;;;;;5071335;28;20029;-76
2021/12/17 07:50:40;;;;;;;10.55;3.45;;;10.20;99.90;;;;;;5071546;28;20014;-75
2021/12/17 07:53:07;;;;;;;14.80;3.97;;;10.10;99.90;;;;;;5071704;28;20071;-75
2021/12/17 07:55:33;;;;;;;8.07;3.15;;;10.20;99.90;;;;;;5071460;28;20024;-75
2021/12/17 07:57:58;;;;;;;12.30;4.38;;;10.20;99.90;;;;;;5053676;28;20027;-75
2021/12/17 08:00:24;;;;;;;8.40;3.42;;;10.10;99.90;;;;;;5053211;28;20427;-75
2021/12/17 08:02:50;;;;;;;10.70;3.08;;;10.20;99.90;;;;;;5053596;28;20074;-75
2021/12/17 08:05:17;;;;;;;9.57;3.42;;;10.10;99.90;;;;;;5053026;28;20012;-76
2021/12/17 08:07:43;;;;;;;8.32;3.03;;;10.20;99.90;;;;;;5074741;28;20381;-76
2021/12/17 08:10:09;;;;;;;10.68;3.03;;;10.20;99.90;;;;;;5075235;28;20024;-75
2021/12/17 08:12:36;;;;;;;8.25;3.22;;;10.20;99.90;;;;;;5074365;28;20021;-76
2021/12/17 08:15:04;;;;;;;11.88;3.80;;;10.20;99.90;;;;;;5075486;28;20062;-75
2021/12/17 08:23:36;;;;;;;8.93;2.92;;;10.20;99.90;;;;;;5074886;28;20062;-74
2021/12/17 08:28:23;;;;;;;;;;;10.20;99.90;;;;;;5074723;28;20132;-75
2021/12/17 08:30:50;;;;;;;9.30;3.08;;;10.20;99.90;;;;;;5074741;28;20394;-75
2021/12/17 08:33:20;;;;;;;9.13;2.53;;;10.20;99.90;;;;;;5056615;28;20024;-75
2021/12/17 08:35:46;;;;;;;9.85;3.17;;;10.30;99.90;;;;;;5056718;28;20499;-75
2021/12/17 08:38:12;;;;;;;10.73;2.90;;;10.20;99.90;;;;;;5074903;28;20036;-75
2021/12/17 08:40:38;;;;;;;9.52;2.85;;;10.20;99.90;;;;;;5074020;28;20469;-76
2021/12/17 08:43:04;;;;;;;9.45;2.78;;;10.20;99.90;;;;;;5056502;28;20139;-75
2021/12/17 08:45:30;;;;;;;7.13;2.97;;;10.20;99.90;;;;;;5056030;28;20150;-76
2021/12/17 08:47:56;;;;;;;8.88;3.22;;;10.20;99.90;;;;;;5074223;28;20025;-76
2021/12/17 08:50:23;;;;;;;6.85;2.40;;;10.30;99.90;;;;;;5073665;28;20032;-76
2021/12/17 08:52:49;;;;;;;8.27;2.83;;;10.30;99.90;;;;;;5056301;28;20193;-76
2021/12/17 08:55:15;;;;;;;8.70;2.35;;;10.30;99.90;;;;;;5056202;28;20063;-76
2021/12/17 08:57:41;;;;;;;11.02;3.08;;;10.30;99.90;;;;;;5055738;28;20107;-74
2021/12/17 09:00:10;;;;;;;8.55;2.92;;;10.20;99.90;;;;;;5073877;28;20478;-74
2021/12/17 09:02:37;;;;;;;9.52;2.80;;;10.30;99.90;;;;;;5073703;28;20032;-74
2021/12/17 09:05:07;;;;;;;6.13;2.45;;;10.30;99.90;;;;;;5056103;28;20024;-74
2021/12/17 09:07:33;;;;;;;7.00;2.43;;;10.30;99.90;;;;;;5073589;28;20056;-75
2021/12/17 09:09:59;;;;;;;10.00;3.17;;;10.30;99.90;;;;;;5055974;28;20750;-74
2021/12/17 09:12:25;;;;;;;8.02;2.95;;;10.30;99.90;;;;;;5073486;28;20024;-75
2021/12/17 09:14:51;;;;;;;8.55;2.70;;;10.30;99.90;;;;;;5073484;28;20078;-75
2021/12/17 09:17:18;;;;;;;8.32;3.30;;;10.30;99.90;;;;;;5072817;28;20522;-75
2021/12/17 09:19:44;;;;;;;6.70;2.47;;;10.30;99.90;;;;;;5055336;28;20031;-75
2021/12/17 09:22:10;;;;;;;7.07;2.67;;;10.30;99.90;;;;;;5073706;28;20020;-75
2021/12/17 09:24:36;;;;;;;8.98;2.97;;;10.30;99.90;;;;;;5055324;28;20060;-75
2021/12/17 09:27:02;;;;;;;6.15;2.55;;;10.30;99.90;;;;;;5073639;28;20055;-75
2021/12/17 09:29:27;;;;;;;9.63;2.50;;;10.30;99.90;;;;;;5073084;28;20068;-75
2021/12/17 09:31:53;;;;;;;5.20;2.05;;;10.30;99.90;;;;;;5055629;28;20028;-74
2021/12/17 09:34:19;;;;;;;5.68;2.60;;;10.30;99.90;;;;;;5055759;28;20060;-74
2021/12/17 09:36:44;;;;;;;6.95;2.60;;;10.30;99.90;;;;;;5073086;28;20396;-74
2021/12/17 09:39:10;;;;;;;4.45;2.10;;;10.30;99.90;;;;;;5055481;28;20020;-74
2021/12/17 09:41:36;;;;;;;4.22;1.67;;;10.30;99.90;;;;;;5054830;28;20020;-75
2021/12/17 09:44:02;;;;;;;4.82;2.20;;;10.40;99.90;;;;;;5073580;28;20028;-74
2021/12/17 09:46:28;;;;;;;2.67;1.77;;;10.30;99.90;;;;;;5072730;28;20500;-75
2021/12/17 09:48:54;;;;;;;4.15;1.83;;;10.40;99.90;;;;;;5072783;28;20028;-74
2021/12/17 09:51:21;;;;;;;3.25;1.77;;;10.30;99.90;;;;;;5072956;28;20028;-74
2021/12/17 09:53:48;;;;;;;4.78;2.05;;;10.40;99.90;;;;;;5073211;28;20032;-74
2021/12/17 09:56:14;;;;;;;4.80;1.83;;;10.30;99.90;;;;;;5055102;28;20025;-75
2021/12/17 09:58:40;;;;;;;4.72;2.05;;;10.30;99.90;;;;;;5072508;28;20029;-74
2021/12/17 10:01:05;;;;;;;5.05;2.35;;;10.30;99.90;;;;;;5072767;28;20028;-74
2021/12/17 10:03:31;;;;;;;5.50;2.20;;;10.30;99.90;;;;;;5072213;28;20434;-75
2021/12/17 10:05:57;;;;;;;4.80;2.25;;;10.30;99.90;;;;;;5073109;28;20024;-74
2021/12/17 10:08:24;;;;;;;4.07;2.03;;;10.30;99.90;;;;;;5054491;28;20039;-75
2021/12/17 10:10:54;;;;;;;6.10;2.53;;;10.30;99.90;;;;;;5072855;28;20031;-76
2021/12/17 10:13:24;;;;;;;3.50;1.90;;;10.40;99.90;;;;;;5072961;28;20048;-74
2021/12/17 10:15:56;;;;;;;3.28;1.70;;;10.40;99.90;;;;;;5073017;28;20024;-74
2021/12/17 10:18:36;;;;;;;1.95;1.13;;;10.40;99.90;;;;;;5072495;28;20512;-74
2021/12/17 10:21:08;;;;;;;2.83;1.50;;;10.40;99.80;;;;;;5054898;28;20033;-74
2021/12/17 10:23:34;;;;;;;4.65;1.85;;;10.40;99.80;;;;;;5072239;28;20024;-74
2021/12/17 10:26:01;;;;;;;6.10;1.90;;;10.40;99.80;;;;;;5054920;28;20021;-74
2021/12/17 10:28:27;;;;;;;3.40;1.80;;;10.30;99.80;;;;;;5054070;28;20059;-74
2021/12/17 10:30:57;;;;;;;3.33;1.70;;;10.30;99.90;;;;;;5072685;28;20020;-75
2021/12/17 10:33:27;;;;;;;3.55;1.75;;;10.30;99.90;;;;;;5054865;28;20065;-75
2021/12/17 10:35:54;;;;;;;3.08;1.70;;;10.20;99.90;;;;;;5054424;28;20047;-75
2021/12/17 10:38:23;;;;;;;3.25;1.70;;;10.20;99.90;;;;;;5072303;28;20024;-75
2021/12/17 10:41:01;;;;;;;3.65;1.88;;;10.30;99.90;;;;;;5071833;28;20138;-74
2021/12/17 10:43:35;;;;;;;5.57;2.28;;;10.30;99.90;;;;;;5053932;28;20032;-75
2021/12/17 10:46:11;;;;;;;4.30;2.28;;;10.30;99.90;;;;;;5072334;28;20017;-76
2021/12/17 10:48:51;;;;;;;3.30;1.75;;;10.40;99.80;;;;;;5071784;28;20090;-75
2021/12/17 10:54:16;;;;;;;3.55;1.67;;;10.40;99.60;;;;;;5072276;28;20040;-74
2021/12/17 10:56:46;;;;;;;3.53;1.60;;;10.40;99.60;;;;;;5071790;28;20017;-75
2021/12/17 10:59:18;;;;;;;2.88;1.38;;;10.40;99.70;;;;;;5054189;28;20028;-74
2021/12/17 11:01:55;;;;;;;4.25;1.98;;;10.30;99.70;;;;;;5053963;28;20482;-75
2021/12/17 11:04:29;;;;;;;4.55;1.60;;;10.30;99.80;;;;;;5054042;28;20408;-74
2021/12/17 11:07:13;;;;;;;4.78;1.80;;;10.20;99.80;;;;;;5072209;28;20021;-75
2021/12/17 11:09:40;;;;;;;3.10;1.50;;;10.20;99.90;;;;;;5053546;28;20024;-75
2021/12/17 11:12:17;;;;;;;3.88;1.63;;;10.20;99.90;;;;;;5071986;28;20042;-75
2021/12/17 11:14:44;;;;;;;2.63;1.60;;;10.20;99.90;;;;;;5053404;28;20076;-75
2021/12/17 11:17:11;;;;;;;4.85;1.40;;;10.20;99.90;;;;;;5053841;28;20028;-74
2021/12/17 11:19:38;;;;;;;3.72;1.77;;;10.30;99.90;;;;;;5071420;28;20106;-74
2021/12/17 11:22:04;;;;;;;3.20;1.73;;;10.30;99.90;;;;;;5071981;28;20020;-75
2021/12/17 11:24:33;;;;;;;3.83;1.75;;;10.40;99.80;;;;;;5071257;28;20017;-75
2021/12/17 11:27:02;;;;;;;3.85;1.58;;;10.40;99.80;;;;;;5071546;28;20444;-75
2021/12/17 11:29:28;;;;;;;3.08;1.50;;;10.40;99.70;;;;;;5071866;28;20037;-75
2021/12/17 11:31:54;;;;;;;2.75;1.85;;;10.40;99.70;;;;;;5071150;28;20094;-75
2021/12/17 11:34:20;;;;;;;3.72;1.55;;;10.40;99.70;;;;;;5071826;28;20044;-75
2021/12/17 11:36:47;;;;;;;3.22;1.63;;;10.40;99.70;;;;;;5053369;28;20021;-75
2021/12/17 11:39:30;;;;;;;2.05;1.17;;;10.50;99.70;;;;;;5054017;28;20029;-75
2021/12/17 11:42:04;;;;;;;3.28;1.58;;;10.50;99.70;;;;;;5074679;28;20074;-75
2021/12/17 11:44:40;;;;;;;1.73;1.08;;;10.50;99.70;;;;;;5057376;28;20021;-76
2021/12/17 11:47:10;;;;;;;5.05;2.05;;;10.40;99.70;;;;;;5075591;28;20024;-75
2021/12/17 11:49:54;;;;;;;2.97;1.50;;;10.50;99.60;;;;;;5056910;28;20203;-75
2021/12/17 11:52:34;;;;;;;2.88;1.30;;;10.50;99.60;;;;;;5075430;28;20404;-75
2021/12/17 11:55:27;;;;;;;2.47;1.13;;;10.50;99.60;;;;;;5075144;28;20046;-74
2021/12/17 11:57:57;;;;;;;2.75;1.50;;;10.40;99.50;;;;;;5074646;28;20259;-74
2021/12/17 12:00:47;;;;;;;1.20;0.73;;;10.40;99.50;;;;;;5057433;28;20020;-74
2021/12/17 12:03:23;;;;;;;2.10;0.90;;;10.50;99.50;;;;;;5075301;28;20024;-75
2021/12/17 12:05:53;;;;;;;1.02;0.50;;;10.40;99.50;;;;;;5074865;28;20025;-75
2021/12/17 12:08:46;;;;;;;1.23;0.77;;;10.40;99.50;;;;;;5075177;28;20036;-75
2021/12/17 12:11:19;;;;;;;2.40;1.05;;;10.40;99.40;;;;;;5057248;28;20039;-74
2021/12/17 12:13:47;;;;;;;1.55;0.90;;;10.50;99.40;;;;;;5074266;28;20044;-76
2021/12/17 12:16:19;;;;;;;1.33;0.90;;;10.50;99.30;;;;;;5074804;28;20052;-75
2021/12/17 12:18:49;;;;;;;1.90;0.95;;;10.50;99.20;;;;;;5056453;28;20028;-75
2021/12/17 12:21:23;;;;;;;2.47;1.17;;;10.60;99.20;;;;;;5074949;28;20021;-75
2021/12/17 12:23:57;;;;;;;2.53;1.45;;;10.70;99.20;;;;;;5056721;28;20380;-75
2021/12/17 12:26:26;;;;;;;2.65;1.25;;;10.70;99.10;;;;;;5057801;28;20112;-75
2021/12/17 12:29:09;;;;;;;3.00;1.15;;;10.70;99.10;;;;;;5075096;28;20035;-75
2021/12/17 12:31:37;;;;;;;1.27;0.80;;;10.80;99.00;;;;;;5056742;28;20055;-76
2021/12/17 12:34:06;;;;;;;1.50;0.98;;;10.80;99.00;;;;;;5056881;28;20051;-75
2021/12/17 12:36:49;;;;;;;2.10;1.25;;;10.80;99.00;;;;;;5056953;28;20036;-75
2021/12/17 12:39:32;;;;;;;2.10;1.27;;;10.80;99.00;;;;;;5074938;28;20031;-76
2021/12/17 12:42:06;;;;;;;2.47;1.00;;;10.80;98.90;;;;;;5056606;28;20017;-75
2021/12/17 12:44:49;;;;;;;2.00;1.15;;;10.80;99.00;;;;;;5056761;28;20077;-75
2021/12/17 12:47:23;;;;;;;2.38;1.40;;;10.90;99.00;;;;;;5056685;28;20024;-75
2021/12/17 12:49:59;;;;;;;2.55;1.15;;;10.90;98.90;;;;;;5073559;28;20505;-75
2021/12/17 12:52:41;;;;;;;2.22;1.30;;;10.90;98.80;;;;;;5074313;28;20017;-75
2021/12/17 12:55:14;;;;;;;3.40;1.38;;;10.90;98.80;;;;;;5074760;28;20025;-75
2021/12/17 12:58:01;;;;;;;1.83;1.08;;;10.90;98.80;;;;;;5056020;28;20056;-76
2021/12/17 13:00:38;;;;;;;4.05;1.27;;;10.90;98.80;;;;;;5056354;28;20025;-76
2021/12/17 13:03:13;;;;;;;2.63;1.35;;;10.90;98.80;;;;;;5056669;28;20017;-75
2021/12/17 13:05:42;;;;;;;1.77;1.17;;;11.00;98.80;;;;;;5073495;28;20479;-75
2021/12/17 13:08:12;;;;;;;2.53;1.38;;;10.90;98.70;;;;;;5074091;28;20112;-74
2021/12/17 13:10:41;;;;;;;2.40;1.45;;;10.90;98.70;;;;;;5055526;28;20024;-76
2021/12/17 13:13:27;;;;;;;2.45;1.50;;;11.00;98.70;;;;;;5073879;28;20045;-75
2021/12/17 13:21:36;;;;;;;2.30;1.38;;;11.00;98.70;;;;;;5073927;28;20035;-75
2021/12/17 13:24:15;;;;;;;3.13;1.33;;;11.00;98.70;;;;;;5055880;28;20016;-75
2021/12/17 13:26:50;;;;;;;1.25;0.98;;;11.00;98.60;;;;;;5073443;28;20017;-75
2021/12/17 13:29:26;;;;;;;2.15;1.35;;;10.90;98.60;;;;;;5073246;28;20538;-74
2021/12/17 13:32:00;;;;;;;2.35;1.27;;;10.90;98.60;;;;;;5055017;28;20074;-74
2021/12/17 13:34:55;;;;;;;3.22;1.85;;;10.90;98.60;;;;;;5055581;28;20073;-75
2021/12/17 13:37:32;;;;;;;1.75;1.13;;;10.90;98.90;;;;;;5055404;28;20035;-76
2021/12/17 13:40:05;;;;;;;2.75;1.55;;;10.90;98.70;;;;;;5055067;28;20270;-76
2021/12/17 13:42:39;;;;;;;2.60;1.40;;;10.80;98.90;;;;;;5055695;28;20115;-75
2021/12/17 13:45:11;;;;;;;2.42;1.35;;;10.80;98.60;;;;;;5073060;28;20404;-75
2021/12/17 13:47:45;;;;;;;3.67;1.40;;;10.90;98.60;;;;;;5055402;28;20051;-76
2021/12/17 13:50:20;;;;;;;3.53;1.58;;;10.90;98.60;;;;;;5055638;28;20032;-75
2021/12/17 13:52:54;;;;;;;2.08;1.30;;;10.90;98.60;;;;;;5054895;28;20047;-75
2021/12/17 13:55:25;;;;;;;2.40;1.63;;;10.90;98.60;;;;;;5073321;28;20024;-75
2021/12/17 13:57:52;;;;;;;2.47;1.40;;;10.90;98.60;;;;;;5054859;28;20063;-76
2021/12/17 14:00:24;;;;;;;4.10;1.70;;;10.90;98.60;;;;;;5055286;28;20033;-75
2021/12/17 14:02:54;;;;;;;2.63;1.48;;;10.90;98.60;;;;;;5072532;28;20062;-74
2021/12/17 14:05:30;;;;;;;4.07;1.77;;;10.80;98.60;;;;;;5054729;28;20036;-74
2021/12/17 14:07:59;;;;;;;3.22;1.55;;;10.90;98.60;;;;;;5054636;28;20024;-75
2021/12/17 14:10:31;;;;;;;2.65;1.58;;;10.80;98.60;;;;;;5072903;28;20362;-75
2021/12/17 14:12:57;;;;;;;3.15;1.63;;;10.90;98.60;;;;;;5054312;28;20020;-74
2021/12/17 14:15:29;;;;;;;2.63;1.63;;;10.90;98.60;;;;;;5072910;28;20028;-75
2021/12/17 14:18:01;;;;;;;3.13;2.03;;;10.90;98.60;;;;;;5054474;28;20052;-76
2021/12/17 14:20:36;;;;;;;2.60;1.73;;;10.90;98.80;;;;;;5072927;28;20440;-76
2021/12/17 14:23:14;;;;;;;2.47;1.50;;;10.90;98.50;;;;;;5072020;28;20495;-76
2021/12/17 14:25:40;;;;;;;3.55;2.10;;;10.90;98.50;;;;;;5072370;28;20120;-76
2021/12/17 14:28:11;;;;;;;3.47;1.88;;;10.80;98.50;;;;;;5053811;28;20544;-75
2021/12/17 14:30:38;;;;;;;4.50;2.13;;;10.80;98.60;;;;;;5054290;28;20025;-75
2021/12/17 14:33:16;;;;;;;3.67;1.90;;;10.80;98.60;;;;;;5054081;28;20028;-75
2021/12/17 14:35:46;;;;;;;4.15;2.22;;;10.80;98.60;;;;;;5072290;28;20028;-76
2021/12/17 14:38:13;;;;;;;3.90;2.20;;;10.80;98.50;;;;;;5054433;28;20035;-74
2021/12/17 14:40:51;;;;;;;6.47;1.90;;;10.80;98.60;;;;;;5054294;28;20024;-75
2021/12/17 14:43:34;;;;;;;2.72;2.13;;;10.80;98.60;;;;;;5054868;28;20029;-75
2021/12/17 14:46:26;;;;;;;4.10;2.40;;;10.80;98.60;;;;;;5071966;28;20412;-75
2021/12/17 14:49:23;;;;;;;3.60;2.03;;;10.80;98.60;;;;;;5054497;28;20028;-74
2021/12/17 14:59:30;;;;;;;3.80;2.08;;;10.70;98.60;;;;;;5071860;28;20032;-75
2021/12/17 15:05:14;;;;;;;5.57;2.35;;;10.70;98.60;;;;;;5072408;28;20044;-75
2021/12/17 15:07:40;;;;;;;7.32;2.08;;;10.70;98.60;;;;;;5054097;28;20051;-76
2021/12/17 15:10:08;;;;;;;3.72;2.08;;;10.70;98.60;;;;;;5071337;28;20469;-74
2021/12/17 15:15:21;;;;;;;5.40;2.67;;;10.70;98.70;;;;;;5071784;28;20047;-76
2021/12/17 15:17:51;;;;;;;4.25;2.20;;;10.70;98.70;;;;;;5057800;28;20017;-76
2021/12/17 15:20:20;;;;;;;4.45;2.47;;;10.70;98.70;;;;;;5057901;28;20108;-75
2021/12/17 15:22:46;;;;;;;5.30;2.20;;;10.70;98.70;;;;;;5075656;28;20021;-75
2021/12/17 15:25:14;;;;;;;4.25;2.40;;;10.70;98.60;;;;;;5076201;28;20038;-74
2021/12/17 15:27:41;;;;;;;5.55;2.60;;;10.60;98.60;;;;;;5058108;28;20071;-76
2021/12/17 15:30:27;;;;;;;5.13;2.65;;;10.60;98.60;;;;;;5057419;28;20043;-75
2021/12/17 15:32:53;;;;;;;4.65;2.67;;;10.60;98.60;;;;;;5075194;28;20024;-75
2021/12/17 15:35:22;;;;;;;4.82;2.63;;;10.70;98.70;;;;;;5057842;28;20024;-76
2021/12/17 15:37:49;;;;;;;4.05;2.40;;;10.60;98.70;;;;;;5075441;28;20021;-75
2021/12/17 15:40:16;;;;;;;5.60;2.45;;;10.60;98.70;;;;;;5057800;28;20012;-75
2021/12/17 15:42:42;;;;;;;4.38;2.35;;;10.60;98.70;;;;;;5075580;28;20052;-76
2021/12/17 15:45:08;;;;;;;5.18;2.35;;;10.60;98.70;;;;;;5057225;28;20070;-75
2021/12/17 15:47:34;;;;;;;4.85;2.65;;;10.60;98.70;;;;;;5057711;28;20027;-75
2021/12/17 15:50:01;;;;;;;6.20;2.83;;;10.60;98.70;;;;;;5075022;28;20036;-75
2021/12/17 15:52:28;;;;;;;6.32;3.03;;;10.60;98.70;;;;;;5057700;28;20025;-75
2021/12/17 15:54:53;;;;;;;5.55;3.03;;;10.60;98.70;;;;;;5075083;28;20025;-76
2021/12/17 15:57:19;;;;;;;4.70;2.72;;;10.60;98.70;;;;;;5057070;28;20025;-75
2021/12/17 15:59:48;;;;;;;5.28;2.60;;;10.60;98.80;;;;;;5057253;28;20028;-75
2021/12/17 16:02:13;;;;;;;5.72;2.88;;;10.60;98.70;;;;;;5057363;28;20400;-76
2021/12/17 16:04:43;;;;;;;5.47;2.95;;;10.60;98.70;;;;;;5057336;28;20024;-75
2021/12/17 16:07:10;;;;;;;5.72;2.60;;;10.60;98.70;;;;;;5075112;28;20086;-75
2021/12/17 16:22:47;;;;;;;5.40;2.92;;;10.60;98.70;;;;;;5074917;28;20462;-75
2021/12/17 16:25:13;;;;;;;6.93;3.08;;;10.60;98.70;;;;;;5074567;28;20107;-75